Time;durP1;ratioP1;P1;durP2;ratioP2;P2;SDS_P1;SDS_P2;PMS_P1;PMS_P2;Temp;Humidity;BMP_temperature;BMP_pressure;BME280_temperature;BME280_humidity;BME280_pressure;Samples;Min_cycle;Max_cycle;Signal;HPM_P1;HPM_P2
2022/09/24 00:01:17;;;;;;;76.57;54.55;;;21.30;63.50;;;;;;4958117;28;97401;-50
2022/09/24 00:03:44;;;;;;;73.63;53.83;;;21.30;63.40;;;;;;4963412;28;95123;-47
2022/09/24 00:06:13;;;;;;;74.65;54.70;;;21.30;63.40;;;;;;4966156;28;97768;-51
2022/09/24 00:08:39;;;;;;;74.75;54.38;;;21.30;63.30;;;;;;4966475;28;95371;-53
2022/09/24 00:11:06;;;;;;;74.18;54.22;;;21.30;63.10;;;;;;4968647;28;95437;-48
2022/09/24 00:13:34;;;;;;;75.20;54.70;;;21.30;63.30;;;;;;4963100;28;95285;-52
2022/09/24 00:16:11;;;;;;;74.60;54.40;;;21.30;63.30;;;;;;4972620;28;95512;-48
2022/09/24 00:18:38;;;;;;;75.03;54.00;;;21.30;63.20;;;;;;4964203;28;95578;-52
2022/09/24 00:21:18;;;;;;;74.47;54.35;;;21.30;63.00;;;;;;4963713;28;94961;-48
2022/09/24 00:23:48;;;;;;;74.40;54.30;;;21.30;63.00;;;;;;4974791;28;96227;-50
2022/09/24 00:28:59;;;;;;;74.32;54.00;;;21.30;62.90;;;;;;4964128;28;95212;-50
2022/09/24 00:31:25;;;;;;;73.55;53.67;;;21.30;62.90;;;;;;4962012;28;94919;-53
2022/09/24 00:33:51;;;;;;;74.70;54.13;;;21.30;62.80;;;;;;4972157;28;96484;-49
2022/09/24 00:36:19;;;;;;;75.40;54.30;;;21.30;62.80;;;;;;4959916;28;95259;-48
2022/09/24 00:38:49;;;;;;;75.88;54.28;;;21.30;62.70;;;;;;4952746;28;100543;-51
2022/09/24 00:41:18;;;;;;;74.45;54.65;;;21.30;62.80;;;;;;4965647;28;95201;-49
2022/09/24 00:43:46;;;;;;;73.47;53.65;;;21.30;62.60;;;;;;4973177;28;95609;-47
2022/09/24 00:46:24;;;;;;;75.72;54.35;;;21.30;62.60;;;;;;4964300;28;95468;-50
2022/09/24 00:48:53;;;;;;;74.78;54.30;;;21.30;62.60;;;;;;4962935;28;95871;-51
2022/09/24 00:51:21;;;;;;;75.78;54.53;;;21.20;62.60;;;;;;4960562;28;94772;-48
2022/09/24 00:53:54;;;;;;;74.57;53.90;;;21.30;62.70;;;;;;4969473;28;95556;-51
2022/09/24 00:56:21;;;;;;;73.90;54.05;;;21.30;62.60;;;;;;4969319;28;96145;-51
2022/09/24 00:58:51;;;;;;;73.93;54.17;;;21.20;62.60;;;;;;4962867;28;94748;-51
2022/09/24 01:01:18;;;;;;;73.55;54.00;;;21.20;62.60;;;;;;4959718;28;96323;-50
2022/09/24 01:03:45;;;;;;;73.63;54.05;;;21.30;62.50;;;;;;4965953;28;95759;-49
2022/09/24 01:06:12;;;;;;;74.40;53.85;;;21.30;62.60;;;;;;4969702;28;96036;-49
2022/09/24 01:08:39;;;;;;;74.10;53.55;;;21.20;62.60;;;;;;4961326;28;95481;-49
2022/09/24 01:11:21;;;;;;;73.95;53.80;;;21.20;62.40;;;;;;4960580;28;94919;-48
2022/09/24 01:14:09;;;;;;;74.00;53.78;;;21.20;62.40;;;;;;4959452;28;96365;-51
2022/09/24 01:16:41;;;;;;;74.95;54.00;;;21.20;62.40;;;;;;4965951;28;96885;-49
2022/09/24 01:19:25;;;;;;;74.22;53.92;;;21.20;63.20;;;;;;4973559;28;95243;-49
2022/09/24 01:21:55;;;;;;;74.03;54.38;;;21.20;62.30;;;;;;4962751;28;95881;-50
2022/09/24 01:24:55;;;;;;;73.45;53.83;;;21.20;62.20;;;;;;4971258;28;95646;-49
2022/09/24 01:27:55;;;;;;;74.05;53.97;;;21.20;62.40;;;;;;4965669;28;95176;-53
2022/09/24 01:30:21;;;;;;;73.68;54.03;;;21.20;62.70;;;;;;4956000;28;95444;-52
2022/09/24 01:32:50;;;;;;;74.20;54.05;;;21.20;62.40;;;;;;4962597;28;94771;-49
2022/09/24 01:35:15;;;;;;;74.68;53.63;;;21.10;62.40;;;;;;4971902;28;96339;-52
2022/09/24 01:37:46;;;;;;;73.85;53.90;;;21.20;62.40;;;;;;4962412;28;96373;-51
2022/09/24 01:40:13;;;;;;;74.82;54.35;;;21.20;62.50;;;;;;4965417;28;96310;-48
2022/09/24 01:42:42;;;;;;;74.32;53.80;;;21.20;62.20;;;;;;4969634;28;97096;-51
2022/09/24 01:45:09;;;;;;;73.68;53.90;;;21.20;62.30;;;;;;4955654;28;95551;-49
2022/09/24 01:47:38;;;;;;;72.70;53.85;;;21.20;62.20;;;;;;4958173;28;95560;-52
2022/09/24 01:50:09;;;;;;;74.22;53.83;;;21.20;62.10;;;;;;4966127;28;95845;-47
2022/09/24 01:52:42;;;;;;;73.28;53.65;;;21.20;62.10;;;;;;4977704;28;95776;-50
2022/09/24 01:55:12;;;;;;;73.82;53.83;;;21.20;62.10;;;;;;4969932;28;95584;-51
2022/09/24 01:57:44;;;;;;;73.82;53.55;;;21.20;62.10;;;;;;4958524;28;95712;-49
2022/09/24 02:00:10;;;;;;;;;;;21.20;62.00;;;;;;4963807;28;95158;-50
2022/09/24 02:02:46;;;;;;;72.32;53.40;;;21.20;62.00;;;;;;4965983;28;94903;-54
2022/09/24 02:05:33;;;;;;;74.28;54.28;;;21.20;61.90;;;;;;4969939;28;97221;-52
2022/09/24 02:08:32;;;;;;;73.60;54.08;;;21.20;62.00;;;;;;4960437;28;95185;-52
2022/09/24 02:11:00;;;;;;;73.45;53.75;;;21.20;61.80;;;;;;4970061;28;95210;-53
2022/09/24 02:13:31;;;;;;;74.47;53.72;;;21.10;61.90;;;;;;4966385;28;96650;-49
2022/09/24 02:16:00;;;;;;;73.35;53.85;;;21.20;62.00;;;;;;4973447;28;95052;-51
2022/09/24 02:18:32;;;;;;;73.72;53.45;;;21.10;61.90;;;;;;4964594;28;96153;-50
2022/09/24 02:21:01;;;;;;;73.57;53.95;;;21.20;61.90;;;;;;4965075;28;97715;-52
2022/09/24 02:23:30;;;;;;;72.32;53.75;;;21.10;61.90;;;;;;4965084;28;96919;-48
2022/09/24 02:26:00;;;;;;;73.82;53.95;;;21.20;61.80;;;;;;4963718;28;97492;-51
2022/09/24 02:28:26;;;;;;;73.80;54.13;;;21.20;61.80;;;;;;4959683;28;95905;-53
2022/09/24 02:31:01;;;;;;;73.25;54.30;;;21.10;61.80;;;;;;4960477;28;98118;-52
2022/09/24 02:36:16;;;;;;;73.57;53.90;;;21.20;62.00;;;;;;4964529;28;95785;-50
2022/09/24 02:38:42;;;;;;;73.70;53.65;;;21.20;61.70;;;;;;4967219;28;95438;-50
2022/09/24 02:41:09;;;;;;;74.03;53.63;;;21.10;61.70;;;;;;4959513;28;97031;-49
2022/09/24 02:43:35;;;;;;;73.50;53.50;;;21.10;61.70;;;;;;4955360;28;96557;-51
2022/09/24 02:46:01;;;;;;;74.00;53.47;;;21.10;61.80;;;;;;4968923;28;95487;-51
2022/09/24 02:48:27;;;;;;;72.93;53.10;;;21.10;61.90;;;;;;4960541;28;98873;-52
2022/09/24 02:50:52;;;;;;;73.20;53.50;;;21.10;61.90;;;;;;4958817;28;96127;-52
2022/09/24 02:53:18;;;;;;;73.43;53.67;;;21.10;61.80;;;;;;4970578;28;94821;-51
2022/09/24 02:55:44;;;;;;;72.93;53.53;;;21.10;61.70;;;;;;4967435;28;98669;-49
2022/09/24 02:58:10;;;;;;;73.40;53.08;;;21.10;61.80;;;;;;4960937;28;98761;-53
2022/09/24 03:00:35;;;;;;;72.57;53.15;;;21.10;61.80;;;;;;4965906;28;95715;-50
2022/09/24 03:03:01;;;;;;;73.97;53.80;;;21.10;61.80;;;;;;4969413;28;95472;-51
2022/09/24 03:05:27;;;;;;;71.85;53.00;;;21.10;61.80;;;;;;4963191;28;95760;-53
2022/09/24 03:07:52;;;;;;;72.78;53.53;;;21.10;61.70;;;;;;4969221;28;95041;-50
2022/09/24 03:10:18;;;;;;;73.55;53.58;;;21.10;61.80;;;;;;4959170;28;99515;-50
2022/09/24 03:12:44;;;;;;;72.13;53.42;;;21.10;61.60;;;;;;4971636;28;94165;-52
2022/09/24 03:15:10;;;;;;;72.43;53.30;;;21.10;61.60;;;;;;4964628;28;95335;-51
2022/09/24 03:17:35;;;;;;;73.50;53.67;;;21.10;61.70;;;;;;4959196;28;95925;-50
2022/09/24 03:20:02;;;;;;;73.03;53.95;;;21.10;61.80;;;;;;4962854;28;96609;-50
2022/09/24 03:22:27;;;;;;;72.28;53.08;;;21.10;61.80;;;;;;4971727;28;95190;-52
2022/09/24 03:24:53;;;;;;;73.45;53.63;;;21.10;61.60;;;;;;4964728;28;95279;-50
2022/09/24 03:27:19;;;;;;;72.78;53.70;;;21.10;61.60;;;;;;4960324;28;95902;-50
2022/09/24 03:32:32;;;;;;;72.72;53.60;;;21.10;61.60;;;;;;4970689;28;95230;-48
2022/09/24 03:34:57;;;;;;;72.72;53.33;;;21.10;61.60;;;;;;4962791;28;95713;-52
2022/09/24 03:37:23;;;;;;;73.30;53.65;;;21.10;61.70;;;;;;4960511;28;96382;-47
2022/09/24 03:39:48;;;;;;;73.18;53.65;;;21.00;61.70;;;;;;4961580;28;94947;-51
2022/09/24 03:42:14;;;;;;;73.93;53.95;;;21.00;61.70;;;;;;4965548;28;95887;-53
2022/09/24 03:44:40;;;;;;;72.00;53.03;;;21.00;61.70;;;;;;4963097;28;95907;-49
2022/09/24 03:47:05;;;;;;;72.97;53.25;;;21.00;61.70;;;;;;4961894;28;96517;-49
2022/09/24 03:49:31;;;;;;;72.90;53.67;;;21.00;61.80;;;;;;4974632;28;95170;-49
2022/09/24 03:51:57;;;;;;;73.25;53.90;;;21.00;61.80;;;;;;4964952;28;98066;-52
2022/09/24 03:54:22;;;;;;;71.72;53.13;;;21.00;61.70;;;;;;4959836;28;96181;-49
2022/09/24 03:56:48;;;;;;;73.15;53.67;;;21.00;61.60;;;;;;4965859;28;96719;-52
2022/09/24 03:59:13;;;;;;;72.57;53.30;;;21.00;61.60;;;;;;4966090;28;95180;-50
2022/09/24 04:01:39;;;;;;;73.32;53.47;;;21.00;61.60;;;;;;4961819;28;94387;-49
2022/09/24 04:04:05;;;;;;;73.72;53.70;;;21.00;61.60;;;;;;4960049;28;98842;-51
2022/09/24 04:06:30;;;;;;;72.88;53.40;;;21.00;61.50;;;;;;4968058;28;95186;-50
2022/09/24 04:08:57;;;;;;;72.78;52.65;;;21.00;61.60;;;;;;4968430;28;96122;-49
2022/09/24 04:11:23;;;;;;;73.50;53.90;;;21.00;61.50;;;;;;4963549;28;96381;-48
2022/09/24 04:13:50;;;;;;;73.80;53.78;;;21.00;61.50;;;;;;4964687;28;94926;-49
2022/09/24 04:16:16;;;;;;;72.88;53.50;;;21.00;61.60;;;;;;4960883;28;96653;-47
2022/09/24 04:18:41;;;;;;;72.97;52.85;;;21.00;61.50;;;;;;4965938;28;95850;-49
2022/09/24 04:21:08;;;;;;;73.03;53.40;;;21.00;61.70;;;;;;4963015;28;95276;-53
2022/09/24 04:23:34;;;;;;;72.97;53.65;;;21.00;61.50;;;;;;4963974;28;94926;-53
2022/09/24 04:26:01;;;;;;;72.50;53.47;;;21.00;61.50;;;;;;4968550;28;97005;-51
2022/09/24 04:28:27;;;;;;;73.47;53.88;;;21.10;61.50;;;;;;4970727;28;95405;-53
2022/09/24 04:30:53;;;;;;;73.47;53.08;;;21.00;61.40;;;;;;4958899;28;95073;-48
2022/09/24 04:33:18;;;;;;;72.35;53.45;;;21.00;61.50;;;;;;4965050;28;96924;-52
2022/09/24 04:35:45;;;;;;;72.85;53.60;;;21.00;61.80;;;;;;4963649;28;95196;-52
2022/09/24 04:38:11;;;;;;;73.07;53.70;;;21.00;61.60;;;;;;4961434;28;97788;-51
2022/09/24 04:40:37;;;;;;;71.85;53.33;;;21.00;61.70;;;;;;4964096;28;94806;-51
2022/09/24 04:43:04;;;;;;;72.68;53.50;;;21.00;61.50;;;;;;4966135;28;95273;-52
2022/09/24 04:45:31;;;;;;;72.40;53.20;;;21.00;61.60;;;;;;4965667;28;94998;-51
2022/09/24 04:47:57;;;;;;;72.45;53.20;;;21.00;61.60;;;;;;4953790;28;95512;-51
2022/09/24 04:50:24;;;;;;;71.90;53.20;;;21.00;61.50;;;;;;4960062;28;94155;-50
2022/09/24 04:52:50;;;;;;;72.47;53.30;;;21.00;61.70;;;;;;4964793;28;98795;-52
2022/09/24 04:55:16;;;;;;;72.60;53.35;;;21.00;61.70;;;;;;4959101;28;95258;-50
2022/09/24 04:57:43;;;;;;;72.57;53.45;;;20.90;61.70;;;;;;4964072;28;98985;-52
2022/09/24 05:00:14;;;;;;;72.70;53.03;;;21.00;61.70;;;;;;4960277;28;97238;-50
2022/09/24 05:02:40;;;;;;;72.72;53.45;;;21.00;61.60;;;;;;4957186;28;95390;-51
2022/09/24 05:05:06;;;;;;;72.10;52.83;;;21.00;61.50;;;;;;4971861;28;95430;-52
2022/09/24 05:07:32;;;;;;;72.57;52.88;;;21.00;61.60;;;;;;4961508;28;97082;-51
2022/09/24 05:09:57;;;;;;;72.38;53.60;;;21.00;61.50;;;;;;4960898;28;95208;-55
2022/09/24 05:12:23;;;;;;;72.65;53.63;;;21.00;61.40;;;;;;4960455;28;101658;-52
2022/09/24 05:14:49;;;;;;;71.72;53.15;;;21.00;61.40;;;;;;4968646;28;95320;-53
2022/09/24 05:17:14;;;;;;;72.65;52.97;;;21.00;61.40;;;;;;4962219;28;95520;-50
2022/09/24 05:19:40;;;;;;;73.10;52.97;;;21.00;61.40;;;;;;4967908;28;95517;-51
2022/09/24 05:22:06;;;;;;;72.25;53.00;;;21.00;61.60;;;;;;4964074;28;97932;-51
2022/09/24 05:24:31;;;;;;;72.65;53.15;;;20.90;61.60;;;;;;4971466;28;94905;-52
2022/09/24 05:27:09;;;;;;;72.45;53.42;;;21.00;61.60;;;;;;4951689;28;95812;-53
2022/09/24 05:29:42;;;;;;;71.60;52.75;;;20.90;61.60;;;;;;4970299;28;94901;-53
2022/09/24 05:32:12;;;;;;;71.80;53.10;;;21.00;61.60;;;;;;4971914;28;96837;-49
2022/09/24 05:34:37;;;;;;;72.07;53.30;;;21.00;61.50;;;;;;4963336;28;95032;-51
2022/09/24 05:37:03;;;;;;;73.18;53.85;;;21.00;61.50;;;;;;4955928;28;95581;-51
2022/09/24 05:39:30;;;;;;;72.32;53.28;;;21.00;61.50;;;;;;4963070;28;94452;-51
2022/09/24 05:41:56;;;;;;;72.25;53.40;;;20.90;61.50;;;;;;4966095;28;96267;-52
2022/09/24 05:44:22;;;;;;;71.53;52.80;;;21.00;61.50;;;;;;4961380;28;95125;-51
2022/09/24 05:46:48;;;;;;;72.03;53.25;;;20.90;61.50;;;;;;4963427;28;98339;-54
2022/09/24 05:49:14;;;;;;;71.75;53.40;;;21.00;61.50;;;;;;4969168;28;95041;-50
2022/09/24 05:51:40;;;;;;;72.43;53.08;;;21.00;61.50;;;;;;4955201;28;94960;-49
2022/09/24 05:54:06;;;;;;;72.07;53.05;;;20.90;61.60;;;;;;4962890;28;97180;-51
2022/09/24 05:56:32;;;;;;;72.88;53.50;;;20.90;61.60;;;;;;4961134;28;95278;-48
2022/09/24 05:58:59;;;;;;;72.60;53.13;;;20.90;61.60;;;;;;4971145;28;94809;-50
2022/09/24 06:01:28;;;;;;;72.72;53.63;;;20.90;61.60;;;;;;4962569;28;95474;-53
2022/09/24 06:03:55;;;;;;;72.65;53.17;;;20.90;61.70;;;;;;4958137;28;94939;-51
2022/09/24 06:06:21;;;;;;;73.18;53.03;;;20.90;61.80;;;;;;4967894;28;95749;-55
2022/09/24 06:08:47;;;;;;;73.28;53.60;;;20.90;61.60;;;;;;4968250;28;94848;-52
2022/09/24 06:11:13;;;;;;;71.75;52.55;;;20.90;61.60;;;;;;4957763;28;96519;-52
2022/09/24 06:13:38;;;;;;;72.75;53.08;;;20.90;61.70;;;;;;4956617;28;97525;-49
2022/09/24 06:16:07;;;;;;;72.82;52.95;;;21.00;61.70;;;;;;4970592;28;96132;-52
2022/09/24 06:18:35;;;;;;;72.90;53.22;;;20.90;61.60;;;;;;4960799;28;96955;-51
2022/09/24 06:21:06;;;;;;;71.75;52.30;;;20.90;61.50;;;;;;4966209;28;96583;-52
2022/09/24 06:23:32;;;;;;;;;;;21.00;61.50;;;;;;4965081;28;100650;-50
2022/09/24 06:25:58;;;;;;;72.40;53.08;;;20.90;61.50;;;;;;4964803;28;95703;-52
2022/09/24 06:28:26;;;;;;;72.85;52.92;;;20.90;61.60;;;;;;4959623;28;94207;-50
2022/09/24 06:30:52;;;;;;;71.88;52.67;;;20.90;61.60;;;;;;4959644;28;96374;-50
2022/09/24 06:33:19;;;;;;;72.95;53.70;;;20.90;61.50;;;;;;4977463;28;95121;-50
2022/09/24 06:35:46;;;;;;;72.47;53.25;;;20.90;61.60;;;;;;4962260;28;96351;-50
2022/09/24 06:38:17;;;;;;;72.95;52.92;;;20.90;61.80;;;;;;4955955;28;98714;-49
2022/09/24 06:40:44;;;;;;;74.32;53.47;;;20.90;61.80;;;;;;4959488;28;95452;-49
2022/09/24 06:43:14;;;;;;;72.22;53.30;;;20.90;61.70;;;;;;4966915;28;95318;-48
2022/09/24 06:45:41;;;;;;;72.60;53.60;;;20.90;61.70;;;;;;4969435;28;95294;-53
2022/09/24 06:48:10;;;;;;;72.85;53.38;;;20.90;61.80;;;;;;4970243;28;96101;-53
2022/09/24 06:50:39;;;;;;;71.57;52.78;;;20.90;61.70;;;;;;4958387;28;95209;-53
2022/09/24 06:53:06;;;;;;;72.85;53.45;;;20.90;61.70;;;;;;4962329;28;100469;-49
2022/09/24 06:55:35;;;;;;;72.72;53.88;;;20.90;61.80;;;;;;4969311;28;95157;-51
2022/09/24 06:58:01;;;;;;;71.97;53.05;;;20.90;61.70;;;;;;4974008;28;95308;-48
2022/09/24 07:00:27;;;;;;;72.85;53.75;;;20.90;61.60;;;;;;4961230;28;96444;-51
2022/09/24 07:02:53;;;;;;;72.93;53.55;;;20.90;61.80;;;;;;4972292;28;94928;-48
2022/09/24 07:05:18;;;;;;;71.00;52.63;;;20.90;61.70;;;;;;4972515;28;95759;-48
2022/09/24 07:07:44;;;;;;;73.20;53.38;;;20.90;61.80;;;;;;4964863;28;94988;-53
2022/09/24 07:10:09;;;;;;;71.93;53.42;;;20.90;61.80;;;;;;4953575;28;96385;-49
2022/09/24 07:12:35;;;;;;;72.43;53.67;;;20.90;61.70;;;;;;4962003;28;95229;-50
2022/09/24 07:15:02;;;;;;;75.22;53.28;;;20.90;61.90;;;;;;4965748;28;94851;-52
2022/09/24 07:17:28;;;;;;;72.25;53.15;;;20.90;62.10;;;;;;4971711;28;94574;-53
2022/09/24 07:19:54;;;;;;;72.43;52.33;;;20.90;62.10;;;;;;4962362;28;95132;-49
2022/09/24 07:22:20;;;;;;;73.75;53.83;;;20.90;62.10;;;;;;4956839;28;98211;-49
2022/09/24 07:24:46;;;;;;;72.80;52.88;;;20.90;62.20;;;;;;4960856;28;96066;-51
2022/09/24 07:27:13;;;;;;;72.00;53.42;;;20.90;62.20;;;;;;4954551;28;95635;-50
2022/09/24 07:29:38;;;;;;;73.78;53.58;;;20.90;62.30;;;;;;4950751;28;99455;-53
2022/09/24 07:32:04;;;;;;;73.10;53.85;;;20.90;62.20;;;;;;4966126;28;95527;-53
2022/09/24 07:34:30;;;;;;;74.82;53.55;;;21.00;62.20;;;;;;4958476;28;102356;-51
2022/09/24 07:36:57;;;;;;;74.18;53.75;;;21.00;62.80;;;;;;4963805;28;100518;-55
2022/09/24 07:39:23;;;;;;;71.78;52.75;;;21.00;62.00;;;;;;4959688;28;95841;-51
2022/09/24 07:41:51;;;;;;;73.22;53.58;;;21.00;62.20;;;;;;4965904;28;95075;-51
2022/09/24 07:44:19;;;;;;;76.30;53.78;;;21.00;62.20;;;;;;4959709;28;100689;-51
2022/09/24 07:46:47;;;;;;;73.53;53.13;;;21.00;62.10;;;;;;4961458;28;95207;-49
2022/09/24 07:49:12;;;;;;;73.13;54.08;;;21.00;62.30;;;;;;4960433;28;97733;-48
2022/09/24 07:51:38;;;;;;;74.63;53.83;;;21.00;62.20;;;;;;4962807;28;97656;-53
2022/09/24 07:54:04;;;;;;;73.00;53.15;;;21.10;62.20;;;;;;4969894;28;95155;-49
2022/09/24 07:56:31;;;;;;;72.68;53.35;;;21.10;62.00;;;;;;4957918;28;95453;-50
2022/09/24 07:58:57;;;;;;;73.63;53.80;;;21.10;62.10;;;;;;4955458;28;96960;-51
2022/09/24 08:01:23;;;;;;;74.00;53.63;;;21.10;63.00;;;;;;4963618;28;97976;-50
2022/09/24 08:03:50;;;;;;;73.35;52.90;;;21.00;62.30;;;;;;4954851;28;95185;-50
2022/09/24 08:06:16;;;;;;;74.70;53.35;;;21.10;62.40;;;;;;4967177;28;95208;-49
2022/09/24 08:08:45;;;;;;;72.82;53.30;;;21.00;62.50;;;;;;4961937;28;99362;-52
2022/09/24 08:11:12;;;;;;;73.53;52.65;;;21.10;62.60;;;;;;4956496;28;94744;-51
2022/09/24 08:13:38;;;;;;;72.22;52.63;;;21.10;62.60;;;;;;4966968;28;96354;-48
2022/09/24 08:16:05;;;;;;;73.03;52.55;;;21.10;62.60;;;;;;4958643;28;96675;-49
2022/09/24 08:18:32;;;;;;;76.00;52.72;;;21.10;62.50;;;;;;4961515;28;97201;-51
2022/09/24 08:21:02;;;;;;;73.75;52.55;;;21.10;62.40;;;;;;4953874;28;95082;-50
2022/09/24 08:23:27;;;;;;;74.82;52.97;;;21.10;62.70;;;;;;4959107;28;95729;-50
2022/09/24 08:25:54;;;;;;;74.40;52.78;;;21.10;62.70;;;;;;4963774;28;98674;-48
2022/09/24 08:28:20;;;;;;;72.70;52.95;;;21.20;62.60;;;;;;4961772;28;96211;-49
2022/09/24 08:30:45;;;;;;;74.20;53.08;;;21.20;62.60;;;;;;4955200;28;98283;-50
2022/09/24 08:33:11;;;;;;;73.80;53.25;;;21.20;62.50;;;;;;4960686;28;96248;-49
2022/09/24 08:35:40;;;;;;;73.93;53.15;;;21.10;62.50;;;;;;4961375;28;95596;-48
2022/09/24 08:38:07;;;;;;;76.28;52.92;;;21.10;62.60;;;;;;4966404;28;97004;-47
2022/09/24 08:40:56;;;;;;;73.03;53.05;;;21.10;62.70;;;;;;4963884;28;96250;-52
2022/09/24 08:43:34;;;;;;;74.05;53.28;;;21.20;62.80;;;;;;4952736;28;95859;-50
2022/09/24 08:48:55;;;;;;;72.63;52.90;;;21.20;62.60;;;;;;4962994;28;95665;-49
2022/09/24 08:51:21;;;;;;;72.97;53.47;;;21.20;62.50;;;;;;4961380;28;95241;-52
2022/09/24 08:54:08;;;;;;;74.60;53.00;;;21.20;62.70;;;;;;4960479;28;97355;-49
2022/09/24 08:56:37;;;;;;;72.43;52.85;;;21.20;62.90;;;;;;4960795;28;95605;-52
2022/09/24 08:59:13;;;;;;;72.75;53.00;;;21.20;62.90;;;;;;4954539;28;96246;-49
2022/09/24 09:01:48;;;;;;;73.93;53.25;;;21.20;62.90;;;;;;4954789;28;95945;-54
2022/09/24 09:04:39;;;;;;;74.57;53.20;;;21.20;62.80;;;;;;4960181;28;98381;-51
2022/09/24 09:07:15;;;;;;;75.03;53.45;;;21.10;64.20;;;;;;4963979;28;96444;-47
2022/09/24 09:09:51;;;;;;;74.35;53.85;;;21.20;64.90;;;;;;4961139;28;96088;-54
2022/09/24 09:12:26;;;;;;;75.32;53.25;;;21.20;65.00;;;;;;4960365;28;96450;-53
2022/09/24 09:15:02;;;;;;;73.90;53.20;;;21.20;64.90;;;;;;4957756;28;102007;-49
2022/09/24 09:17:51;;;;;;;78.88;54.65;;;21.20;64.70;;;;;;4969882;28;95808;-53
2022/09/24 09:20:26;;;;;;;76.53;54.25;;;21.20;65.00;;;;;;4959611;28;99029;-54
2022/09/24 09:22:52;;;;;;;77.30;53.72;;;21.20;65.40;;;;;;4957185;28;94687;-53
2022/09/24 09:25:27;;;;;;;75.18;53.28;;;21.20;65.60;;;;;;4960833;28;97956;-49
2022/09/24 09:28:16;;;;;;;79.82;54.20;;;21.20;65.50;;;;;;4956856;28;98606;-50
2022/09/24 09:31:05;;;;;;;78.93;54.00;;;21.30;65.80;;;;;;4952926;28;98194;-53
2022/09/24 09:34:02;;;;;;;78.93;53.90;;;21.20;65.60;;;;;;4958813;28;97470;-50
2022/09/24 09:36:56;;;;;;;83.65;54.03;;;21.30;65.50;;;;;;4959635;28;94979;-50
2022/09/24 09:39:37;;;;;;;78.93;54.08;;;21.30;65.30;;;;;;4965586;28;94984;-53
2022/09/24 09:42:06;;;;;;;77.77;53.97;;;21.30;65.40;;;;;;4970609;28;94915;-53
2022/09/24 09:44:40;;;;;;;80.72;53.92;;;21.30;65.50;;;;;;4960729;28;95975;-52
2022/09/24 09:47:31;;;;;;;81.38;54.13;;;21.30;65.80;;;;;;4953726;28;95466;-52
2022/09/24 09:50:04;;;;;;;77.53;54.10;;;21.30;66.10;;;;;;4964048;28;96604;-51
2022/09/24 09:52:35;;;;;;;81.30;53.50;;;21.30;66.10;;;;;;4963340;28;97435;-51
2022/09/24 09:55:04;;;;;;;82.90;54.00;;;21.40;67.00;;;;;;4954994;28;95566;-54
2022/09/24 09:57:30;;;;;;;78.70;53.45;;;21.40;66.20;;;;;;4965971;28;95928;-54
2022/09/24 09:59:56;;;;;;;77.40;54.22;;;21.40;66.50;;;;;;4964156;28;100502;-52
2022/09/24 10:02:32;;;;;;;78.72;54.13;;;21.40;66.50;;;;;;4944696;28;95906;-51
2022/09/24 10:05:00;;;;;;;79.95;54.08;;;21.40;66.60;;;;;;4963766;28;95243;-50
2022/09/24 10:07:27;;;;;;;82.50;54.30;;;21.40;66.50;;;;;;4960124;28;95425;-51
2022/09/24 10:10:16;;;;;;;86.38;54.17;;;21.40;67.20;;;;;;4954163;28;96229;-54
2022/09/24 10:12:41;;;;;;;78.10;54.30;;;21.50;67.90;;;;;;4962060;28;96214;-53
2022/09/24 10:15:13;;;;;;;82.32;54.53;;;21.50;67.80;;;;;;4955134;28;99219;-49
2022/09/24 10:17:40;;;;;;;81.45;54.65;;;21.60;67.60;;;;;;4957907;28;95757;-52
2022/09/24 10:20:16;;;;;;;97.22;60.72;;;21.50;67.40;;;;;;4962876;28;95451;-53
2022/09/24 10:22:52;;;;;;;79.80;57.42;;;21.50;67.90;;;;;;4961360;28;96022;-51
2022/09/24 10:25:25;;;;;;;91.50;57.85;;;21.60;67.40;;;;;;4965910;28;95757;-48
2022/09/24 10:27:53;;;;;;;80.53;56.17;;;21.60;67.60;;;;;;4967812;28;94833;-53
2022/09/24 10:30:34;;;;;;;82.55;57.10;;;21.60;67.60;;;;;;4957667;28;100025;-50
2022/09/24 10:33:03;;;;;;;85.93;57.42;;;21.50;67.70;;;;;;4961033;28;100439;-51
2022/09/24 10:35:37;;;;;;;79.47;56.78;;;21.50;67.90;;;;;;4960985;28;96383;-49
2022/09/24 10:38:20;;;;;;;82.35;57.03;;;21.50;67.60;;;;;;4958948;28;94846;-53
2022/09/24 10:40:46;;;;;;;80.40;56.63;;;21.60;70.00;;;;;;4967995;28;94013;-54
2022/09/24 10:43:21;;;;;;;80.50;57.17;;;21.60;73.50;;;;;;4971492;28;95308;-54
2022/09/24 10:46:07;;;;;;;78.70;56.63;;;21.70;73.80;;;;;;4955326;28;96762;-54
2022/09/24 10:48:44;;;;;;;79.28;56.60;;;21.70;73.00;;;;;;4963448;28;96117;-52
2022/09/24 10:51:25;;;;;;;80.32;56.72;;;21.60;73.10;;;;;;4960766;28;96296;-52
2022/09/24 10:54:28;;;;;;;81.28;57.28;;;21.60;73.90;;;;;;4959638;28;99650;-53
2022/09/24 10:56:56;;;;;;;81.70;56.42;;;21.50;74.80;;;;;;4959763;28;97189;-53
2022/09/24 10:59:33;;;;;;;83.47;56.80;;;21.50;75.50;;;;;;4963011;28;95708;-52
2022/09/24 11:02:08;;;;;;;82.05;58.20;;;21.60;75.50;;;;;;4970198;28;95134;-54
2022/09/24 11:04:42;;;;;;;82.07;57.80;;;21.60;75.30;;;;;;4956616;28;95619;-53
2022/09/24 11:07:45;;;;;;;84.40;57.83;;;21.60;73.40;;;;;;4957973;28;94921;-53
2022/09/24 11:10:52;;;;;;;80.22;58.05;;;21.60;73.40;;;;;;4967691;28;94980;-50
2022/09/24 11:13:25;;;;;;;79.72;58.15;;;21.60;72.80;;;;;;4964297;28;97409;-52
2022/09/24 11:16:09;;;;;;;80.00;57.65;;;21.60;72.60;;;;;;4967407;28;96283;-55
2022/09/24 11:19:05;;;;;;;80.85;57.80;;;21.60;72.50;;;;;;4969915;28;94944;-52
2022/09/24 11:22:01;;;;;;;80.90;56.97;;;21.60;71.90;;;;;;4966647;28;95467;-49
2022/09/24 11:24:45;;;;;;;78.65;57.05;;;21.50;71.20;;;;;;4966081;28;95588;-49
2022/09/24 11:27:37;;;;;;;79.90;56.85;;;21.50;72.20;;;;;;4971001;28;95465;-51
2022/09/24 11:30:13;;;;;;;80.43;57.67;;;21.40;72.70;;;;;;4941626;28;96359;-53
2022/09/24 11:33:15;;;;;;;80.40;57.00;;;21.50;73.00;;;;;;4947557;28;99581;-47
2022/09/24 11:35:49;;;;;;;84.20;56.55;;;21.50;70.90;;;;;;4958674;28;94680;-48
2022/09/24 11:38:21;;;;;;;80.95;55.92;;;21.50;71.30;;;;;;4960638;28;96668;-53
2022/09/24 11:41:10;;;;;;;79.07;56.55;;;21.50;70.70;;;;;;4968461;28;97374;-47
2022/09/24 11:43:55;;;;;;;79.38;55.88;;;21.60;71.20;;;;;;4970222;28;96233;-49
2022/09/24 11:46:47;;;;;;;82.03;56.85;;;21.50;71.50;;;;;;4961098;28;101358;-50
2022/09/24 11:49:35;;;;;;;78.20;55.95;;;21.60;71.30;;;;;;4960679;28;96409;-50
2022/09/24 11:52:19;;;;;;;78.72;55.90;;;21.60;71.10;;;;;;4961351;28;95118;-56
2022/09/24 11:54:59;;;;;;;78.05;55.42;;;21.70;70.50;;;;;;4966204;28;95387;-49
2022/09/24 11:57:28;;;;;;;78.40;56.13;;;21.80;70.50;;;;;;4958109;28;95160;-52
2022/09/24 12:00:07;;;;;;;79.03;55.05;;;21.70;70.10;;;;;;4954283;28;100023;-53
2022/09/24 12:02:44;;;;;;;78.47;55.17;;;21.70;69.40;;;;;;4955172;28;100134;-49
2022/09/24 12:05:37;;;;;;;78.68;55.20;;;21.80;69.00;;;;;;4959153;28;98153;-52
2022/09/24 12:08:15;;;;;;;75.78;54.13;;;21.80;68.80;;;;;;4958940;28;95387;-54
2022/09/24 12:10:51;;;;;;;79.22;54.45;;;21.80;68.60;;;;;;4958759;28;104847;-48
2022/09/24 12:13:21;;;;;;;80.47;54.63;;;21.90;68.40;;;;;;4959257;28;96183;-53
2022/09/24 12:16:06;;;;;;;75.53;54.30;;;21.90;68.30;;;;;;4962001;28;95254;-49
2022/09/24 12:18:55;;;;;;;77.50;54.78;;;21.90;68.10;;;;;;4960371;28;95724;-54
2022/09/24 12:21:27;;;;;;;75.82;54.35;;;22.00;67.80;;;;;;4953582;28;95655;-50
2022/09/24 12:23:58;;;;;;;76.30;54.22;;;21.90;67.70;;;;;;4959369;27;96357;-49
2022/09/24 12:26:24;;;;;;;;;;;21.90;67.50;;;;;;4960773;28;96060;-52
2022/09/24 12:35:27;;;;;;;75.18;53.35;;;21.90;67.70;;;;;;4964083;28;95671;-53
2022/09/24 12:38:19;;;;;;;75.28;53.20;;;21.80;67.10;;;;;;4960226;28;96179;-50
2022/09/24 12:41:05;;;;;;;77.07;53.92;;;21.80;67.00;;;;;;4959024;28;100053;-53
2022/09/24 12:43:38;;;;;;;76.88;54.03;;;21.80;67.30;;;;;;4958930;28;95088;-54
2022/09/24 12:46:08;;;;;;;75.38;53.97;;;21.80;66.90;;;;;;4958657;28;94871;-50
2022/09/24 12:48:36;;;;;;;75.55;53.83;;;21.80;67.10;;;;;;4964698;28;95311;-53
2022/09/24 12:51:05;;;;;;;74.43;52.88;;;21.80;67.10;;;;;;4947667;28;96341;-50
2022/09/24 12:53:39;;;;;;;75.72;53.97;;;21.80;67.50;;;;;;4952764;28;98192;-51
2022/09/24 12:56:06;;;;;;;76.47;53.83;;;21.80;67.40;;;;;;4956079;28;96584;-54
2022/09/24 12:58:43;;;;;;;75.93;54.10;;;21.80;67.20;;;;;;4965126;28;95572;-49
2022/09/24 13:01:34;;;;;;;76.00;54.33;;;21.80;67.20;;;;;;4961202;28;100262;-52
2022/09/24 13:04:26;;;;;;;77.07;53.63;;;21.80;67.20;;;;;;4962688;28;98080;-53
2022/09/24 13:06:53;;;;;;;77.00;53.60;;;21.90;66.60;;;;;;4963293;28;95062;-51